sensor_id;sensor_type;location;lat;lon;timestamp;P1;durP1;ratioP1;P2;durP2;ratioP2
65279;SDS011;51878;55.748;48.742;2022-08-01T00:02:03;4.28;;;3.53;;
65279;SDS011;51878;55.748;48.742;2022-08-01T00:04:30;8.60;;;3.70;;
65279;SDS011;51878;55.748;48.742;2022-08-01T00:06:57;5.47;;;3.83;;
65279;SDS011;51878;55.748;48.742;2022-08-01T00:09:24;6.20;;;3.88;;
65279;SDS011;51878;55.748;48.742;2022-08-01T00:11:52;5.55;;;3.50;;
65279;SDS011;51878;55.748;48.742;2022-08-01T00:14:21;4.53;;;3.58;;
65279;SDS011;51878;55.748;48.742;2022-08-01T00:16:58;3.47;;;3.10;;
65279;SDS011;51878;55.748;48.742;2022-08-01T00:19:30;5.30;;;3.47;;
65279;SDS011;51878;55.748;48.742;2022-08-01T00:21:57;5.78;;;3.53;;
65279;SDS011;51878;55.748;48.742;2022-08-01T00:24:24;4.82;;;3.30;;
65279;SDS011;51878;55.748;48.742;2022-08-01T00:26:52;6.53;;;3.40;;
65279;SDS011;51878;55.748;48.742;2022-08-01T00:29:19;4.28;;;3.00;;
65279;SDS011;51878;55.748;48.742;2022-08-01T00:32:06;4.38;;;3.40;;
65279;SDS011;51878;55.748;48.742;2022-08-01T00:34:34;4.22;;;3.20;;
65279;SDS011;51878;55.748;48.742;2022-08-01T00:37:01;3.47;;;3.00;;
65279;SDS011;51878;55.748;48.742;2022-08-01T00:39:28;6.82;;;3.47;;
65279;SDS011;51878;55.748;48.742;2022-08-01T00:41:56;5.45;;;3.50;;
65279;SDS011;51878;55.748;48.742;2022-08-01T00:44:25;4.28;;;3.50;;
65279;SDS011;51878;55.748;48.742;2022-08-01T00:46:53;6.05;;;3.17;;
65279;SDS011;51878;55.748;48.742;2022-08-01T00:49:20;3.50;;;3.20;;
65279;SDS011;51878;55.748;48.742;2022-08-01T00:51:47;4.93;;;3.70;;
65279;SDS011;51878;55.748;48.742;2022-08-01T00:54:15;4.90;;;2.95;;
65279;SDS011;51878;55.748;48.742;2022-08-01T00:56:42;5.05;;;3.67;;
65279;SDS011;51878;55.748;48.742;2022-08-01T00:59:11;4.43;;;3.85;;
65279;SDS011;51878;55.748;48.742;2022-08-01T01:01:39;4.07;;;3.40;;
65279;SDS011;51878;55.748;48.742;2022-08-01T01:04:11;6.15;;;3.53;;
65279;SDS011;51878;55.748;48.742;2022-08-01T01:09:17;6.18;;;3.45;;
65279;SDS011;51878;55.748;48.742;2022-08-01T01:12:33;6.63;;;3.67;;
65279;SDS011;51878;55.748;48.742;2022-08-01T01:15:18;4.57;;;3.35;;
65279;SDS011;51878;55.748;48.742;2022-08-01T01:17:48;4.15;;;3.22;;
65279;SDS011;51878;55.748;48.742;2022-08-01T01:20:23;3.85;;;3.25;;
65279;SDS011;51878;55.748;48.742;2022-08-01T01:23:00;7.45;;;3.47;;
65279;SDS011;51878;55.748;48.742;2022-08-01T01:31:26;5.50;;;3.40;;
65279;SDS011;51878;55.748;48.742;2022-08-01T01:33:57;3.97;;;3.33;;
65279;SDS011;51878;55.748;48.742;2022-08-01T01:36:27;5.53;;;3.13;;
65279;SDS011;51878;55.748;48.742;2022-08-01T01:38:55;6.40;;;3.22;;
65279;SDS011;51878;55.748;48.742;2022-08-01T01:41:23;6.03;;;3.42;;
65279;SDS011;51878;55.748;48.742;2022-08-01T01:43:52;3.47;;;3.17;;
65279;SDS011;51878;55.748;48.742;2022-08-01T01:46:22;5.47;;;3.22;;
65279;SDS011;51878;55.748;48.742;2022-08-01T01:48:53;3.70;;;3.13;;
65279;SDS011;51878;55.748;48.742;2022-08-01T01:51:24;7.82;;;3.17;;
65279;SDS011;51878;55.748;48.742;2022-08-01T01:53:53;5.35;;;3.47;;
65279;SDS011;51878;55.748;48.742;2022-08-01T01:56:23;6.07;;;3.28;;
65279;SDS011;51878;55.748;48.742;2022-08-01T01:58:53;4.22;;;3.03;;
65279;SDS011;51878;55.748;48.742;2022-08-01T02:01:23;8.10;;;3.05;;
65279;SDS011;51878;55.748;48.742;2022-08-01T02:04:04;5.55;;;3.10;;
65279;SDS011;51878;55.748;48.742;2022-08-01T02:06:31;4.43;;;3.05;;
65279;SDS011;51878;55.748;48.742;2022-08-01T02:08:59;5.03;;;2.90;;
65279;SDS011;51878;55.748;48.742;2022-08-01T02:11:30;3.72;;;2.80;;
65279;SDS011;51878;55.748;48.742;2022-08-01T02:13:59;4.50;;;2.83;;
65279;SDS011;51878;55.748;48.742;2022-08-01T02:16:29;5.65;;;2.90;;
65279;SDS011;51878;55.748;48.742;2022-08-01T02:19:02;6.18;;;2.80;;
65279;SDS011;51878;55.748;48.742;2022-08-01T02:21:32;4.20;;;2.90;;
65279;SDS011;51878;55.748;48.742;2022-08-01T02:24:09;3.20;;;2.67;;
65279;SDS011;51878;55.748;48.742;2022-08-01T02:26:44;4.22;;;2.75;;
65279;SDS011;51878;55.748;48.742;2022-08-01T02:29:21;3.08;;;2.58;;
65279;SDS011;51878;55.748;48.742;2022-08-01T02:31:59;4.18;;;2.80;;
65279;SDS011;51878;55.748;48.742;2022-08-01T02:34:28;4.82;;;2.80;;
65279;SDS011;51878;55.748;48.742;2022-08-01T02:37:00;6.60;;;2.90;;
65279;SDS011;51878;55.748;48.742;2022-08-01T02:39:28;3.58;;;2.80;;
65279;SDS011;51878;55.748;48.742;2022-08-01T02:41:59;3.70;;;2.60;;
65279;SDS011;51878;55.748;48.742;2022-08-01T02:44:35;4.28;;;2.75;;
65279;SDS011;51878;55.748;48.742;2022-08-01T02:47:05;3.30;;;2.53;;
65279;SDS011;51878;55.748;48.742;2022-08-01T02:49:35;5.40;;;2.72;;
65279;SDS011;51878;55.748;48.742;2022-08-01T02:52:07;2.88;;;2.58;;
65279;SDS011;51878;55.748;48.742;2022-08-01T02:54:36;3.53;;;2.90;;
65279;SDS011;51878;55.748;48.742;2022-08-01T02:57:06;3.58;;;2.83;;
65279;SDS011;51878;55.748;48.742;2022-08-01T02:59:36;3.88;;;2.70;;
65279;SDS011;51878;55.748;48.742;2022-08-01T03:02:06;5.90;;;2.75;;
65279;SDS011;51878;55.748;48.742;2022-08-01T03:04:37;10.52;;;3.72;;
65279;SDS011;51878;55.748;48.742;2022-08-01T03:07:06;2.97;;;2.60;;
65279;SDS011;51878;55.748;48.742;2022-08-01T03:09:36;3.63;;;2.55;;
65279;SDS011;51878;55.748;48.742;2022-08-01T03:12:08;6.20;;;2.70;;
65279;SDS011;51878;55.748;48.742;2022-08-01T03:14:43;3.83;;;2.55;;
65279;SDS011;51878;55.748;48.742;2022-08-01T03:17:13;2.97;;;2.70;;
65279;SDS011;51878;55.748;48.742;2022-08-01T03:19:42;4.15;;;2.80;;
65279;SDS011;51878;55.748;48.742;2022-08-01T03:22:12;4.40;;;2.53;;
65279;SDS011;51878;55.748;48.742;2022-08-01T03:24:42;3.00;;;2.63;;
65279;SDS011;51878;55.748;48.742;2022-08-01T03:27:11;4.93;;;2.70;;
65279;SDS011;51878;55.748;48.742;2022-08-01T03:29:40;4.97;;;2.60;;
65279;SDS011;51878;55.748;48.742;2022-08-01T03:32:09;5.13;;;2.50;;
65279;SDS011;51878;55.748;48.742;2022-08-01T03:34:38;4.53;;;2.47;;
65279;SDS011;51878;55.748;48.742;2022-08-01T03:37:07;4.15;;;2.75;;
65279;SDS011;51878;55.748;48.742;2022-08-01T03:39:47;4.63;;;2.75;;
65279;SDS011;51878;55.748;48.742;2022-08-01T03:42:20;2.78;;;2.50;;
65279;SDS011;51878;55.748;48.742;2022-08-01T03:44:53;5.28;;;2.40;;
65279;SDS011;51878;55.748;48.742;2022-08-01T03:47:24;9.20;;;2.80;;
65279;SDS011;51878;55.748;48.742;2022-08-01T03:49:56;4.00;;;2.63;;
65279;SDS011;51878;55.748;48.742;2022-08-01T03:52:25;4.30;;;2.45;;
65279;SDS011;51878;55.748;48.742;2022-08-01T03:54:56;3.67;;;2.50;;
65279;SDS011;51878;55.748;48.742;2022-08-01T03:57:27;5.25;;;2.78;;
65279;SDS011;51878;55.748;48.742;2022-08-01T04:00:02;7.63;;;2.58;;
65279;SDS011;51878;55.748;48.742;2022-08-01T04:02:33;2.95;;;2.40;;
65279;SDS011;51878;55.748;48.742;2022-08-01T04:05:01;4.63;;;2.50;;
65279;SDS011;51878;55.748;48.742;2022-08-01T04:07:30;5.35;;;2.55;;
65279;SDS011;51878;55.748;48.742;2022-08-01T04:09:58;4.97;;;2.60;;
65279;SDS011;51878;55.748;48.742;2022-08-01T04:12:26;6.13;;;2.45;;
65279;SDS011;51878;55.748;48.742;2022-08-01T04:14:53;3.35;;;2.33;;
65279;SDS011;51878;55.748;48.742;2022-08-01T04:17:20;3.47;;;2.50;;
65279;SDS011;51878;55.748;48.742;2022-08-01T04:19:47;3.50;;;2.53;;
65279;SDS011;51878;55.748;48.742;2022-08-01T04:22:15;5.03;;;2.50;;
65279;SDS011;51878;55.748;48.742;2022-08-01T04:24:44;2.83;;;2.30;;
65279;SDS011;51878;55.748;48.742;2022-08-01T04:27:23;2.88;;;2.38;;
65279;SDS011;51878;55.748;48.742;2022-08-01T04:30:14;5.97;;;2.85;;
65279;SDS011;51878;55.748;48.742;2022-08-01T04:32:45;4.53;;;2.72;;
65279;SDS011;51878;55.748;48.742;2022-08-01T04:35:16;6.22;;;2.80;;
65279;SDS011;51878;55.748;48.742;2022-08-01T04:37:48;8.20;;;2.75;;
65279;SDS011;51878;55.748;48.742;2022-08-01T04:40:17;4.28;;;2.40;;
65279;SDS011;51878;55.748;48.742;2022-08-01T04:42:48;6.15;;;3.13;;
65279;SDS011;51878;55.748;48.742;2022-08-01T04:45:17;7.72;;;2.80;;
65279;SDS011;51878;55.748;48.742;2022-08-01T04:47:45;5.93;;;2.20;;
65279;SDS011;51878;55.748;48.742;2022-08-01T04:50:14;3.95;;;2.28;;
65279;SDS011;51878;55.748;48.742;2022-08-01T04:52:41;6.07;;;2.35;;
65279;SDS011;51878;55.748;48.742;2022-08-01T04:55:08;4.68;;;2.30;;
65279;SDS011;51878;55.748;48.742;2022-08-01T04:57:37;3.92;;;2.20;;
65279;SDS011;51878;55.748;48.742;2022-08-01T05:00:07;4.03;;;2.50;;
65279;SDS011;51878;55.748;48.742;2022-08-01T05:02:35;7.00;;;2.30;;
65279;SDS011;51878;55.748;48.742;2022-08-01T05:05:02;6.45;;;2.67;;
65279;SDS011;51878;55.748;48.742;2022-08-01T05:07:29;7.50;;;2.22;;
65279;SDS011;51878;55.748;48.742;2022-08-01T05:09:56;3.17;;;2.03;;
65279;SDS011;51878;55.748;48.742;2022-08-01T05:12:24;4.35;;;3.63;;
65279;SDS011;51878;55.748;48.742;2022-08-01T05:14:51;7.93;;;3.35;;
65279;SDS011;51878;55.748;48.742;2022-08-01T05:17:18;5.63;;;3.05;;
65279;SDS011;51878;55.748;48.742;2022-08-01T05:19:45;3.55;;;2.83;;
65279;SDS011;51878;55.748;48.742;2022-08-01T05:22:12;6.85;;;2.30;;
65279;SDS011;51878;55.748;48.742;2022-08-01T05:24:39;5.07;;;2.40;;
65279;SDS011;51878;55.748;48.742;2022-08-01T05:27:07;3.97;;;2.20;;
65279;SDS011;51878;55.748;48.742;2022-08-01T05:29:34;2.42;;;1.80;;
65279;SDS011;51878;55.748;48.742;2022-08-01T05:32:05;2.75;;;2.00;;
65279;SDS011;51878;55.748;48.742;2022-08-01T05:34:33;2.58;;;2.33;;
65279;SDS011;51878;55.748;48.742;2022-08-01T05:37:00;3.50;;;2.20;;
65279;SDS011;51878;55.748;48.742;2022-08-01T05:39:31;2.50;;;1.90;;
65279;SDS011;51878;55.748;48.742;2022-08-01T05:41:58;2.60;;;2.10;;
65279;SDS011;51878;55.748;48.742;2022-08-01T05:44:25;4.22;;;2.13;;
65279;SDS011;51878;55.748;48.742;2022-08-01T05:47:01;2.92;;;2.00;;
65279;SDS011;51878;55.748;48.742;2022-08-01T05:49:29;3.97;;;2.20;;
65279;SDS011;51878;55.748;48.742;2022-08-01T05:51:56;5.43;;;1.92;;
65279;SDS011;51878;55.748;48.742;2022-08-01T05:54:23;3.42;;;2.20;;
65279;SDS011;51878;55.748;48.742;2022-08-01T05:56:51;3.40;;;1.90;;
65279;SDS011;51878;55.748;48.742;2022-08-01T05:59:18;6.40;;;2.00;;
65279;SDS011;51878;55.748;48.742;2022-08-01T06:01:45;6.97;;;1.80;;
65279;SDS011;51878;55.748;48.742;2022-08-01T06:04:12;4.93;;;2.00;;
65279;SDS011;51878;55.748;48.742;2022-08-01T06:06:39;5.25;;;2.08;;
65279;SDS011;51878;55.748;48.742;2022-08-01T06:09:07;2.80;;;2.10;;
65279;SDS011;51878;55.748;48.742;2022-08-01T06:11:34;7.63;;;2.10;;
65279;SDS011;51878;55.748;48.742;2022-08-01T06:14:01;7.65;;;2.00;;
65279;SDS011;51878;55.748;48.742;2022-08-01T06:16:28;5.03;;;2.53;;
65279;SDS011;51878;55.748;48.742;2022-08-01T06:18:55;7.18;;;2.17;;
65279;SDS011;51878;55.748;48.742;2022-08-01T06:21:22;5.75;;;2.15;;
65279;SDS011;51878;55.748;48.742;2022-08-01T06:23:50;3.25;;;1.90;;
65279;SDS011;51878;55.748;48.742;2022-08-01T06:26:17;4.32;;;1.80;;
65279;SDS011;51878;55.748;48.742;2022-08-01T06:28:45;2.95;;;1.80;;
65279;SDS011;51878;55.748;48.742;2022-08-01T06:31:12;3.88;;;1.83;;
65279;SDS011;51878;55.748;48.742;2022-08-01T06:33:59;7.13;;;1.83;;
65279;SDS011;51878;55.748;48.742;2022-08-01T06:36:26;2.13;;;1.70;;
65279;SDS011;51878;55.748;48.742;2022-08-01T06:38:53;3.80;;;2.10;;
65279;SDS011;51878;55.748;48.742;2022-08-01T06:41:20;1.70;;;1.60;;
65279;SDS011;51878;55.748;48.742;2022-08-01T06:43:48;3.15;;;1.80;;
65279;SDS011;51878;55.748;48.742;2022-08-01T06:46:15;2.65;;;1.80;;
65279;SDS011;51878;55.748;48.742;2022-08-01T06:48:42;5.55;;;1.75;;
65279;SDS011;51878;55.748;48.742;2022-08-01T06:51:12;3.33;;;1.77;;
65279;SDS011;51878;55.748;48.742;2022-08-01T06:53:44;5.38;;;2.20;;
65279;SDS011;51878;55.748;48.742;2022-08-01T06:56:11;5.78;;;2.20;;
65279;SDS011;51878;55.748;48.742;2022-08-01T06:58:39;6.90;;;2.10;;
65279;SDS011;51878;55.748;48.742;2022-08-01T07:01:06;4.07;;;2.05;;
65279;SDS011;51878;55.748;48.742;2022-08-01T07:03:34;2.38;;;1.83;;
65279;SDS011;51878;55.748;48.742;2022-08-01T07:06:18;3.22;;;2.20;;
65279;SDS011;51878;55.748;48.742;2022-08-01T07:08:45;2.38;;;1.80;;
65279;SDS011;51878;55.748;48.742;2022-08-01T07:11:12;2.00;;;1.60;;
65279;SDS011;51878;55.748;48.742;2022-08-01T07:13:39;5.93;;;1.80;;
65279;SDS011;51878;55.748;48.742;2022-08-01T07:16:09;3.35;;;1.70;;
65279;SDS011;51878;55.748;48.742;2022-08-01T07:18:36;5.35;;;1.77;;
65279;SDS011;51878;55.748;48.742;2022-08-01T07:21:04;1.80;;;1.70;;
65279;SDS011;51878;55.748;48.742;2022-08-01T07:23:31;6.03;;;1.92;;
65279;SDS011;51878;55.748;48.742;2022-08-01T07:25:59;10.07;;;2.45;;
65279;SDS011;51878;55.748;48.742;2022-08-01T07:28:28;4.07;;;1.83;;
65279;SDS011;51878;55.748;48.742;2022-08-01T07:30:55;4.65;;;1.70;;
65279;SDS011;51878;55.748;48.742;2022-08-01T07:33:22;5.15;;;2.63;;
65279;SDS011;51878;55.748;48.742;2022-08-01T07:35:49;3.35;;;1.73;;
65279;SDS011;51878;55.748;48.742;2022-08-01T07:38:17;10.00;;;1.90;;
65279;SDS011;51878;55.748;48.742;2022-08-01T07:40:44;1.90;;;1.80;;
65279;SDS011;51878;55.748;48.742;2022-08-01T07:43:11;1.90;;;1.70;;
65279;SDS011;51878;55.748;48.742;2022-08-01T07:45:39;3.95;;;1.90;;
65279;SDS011;51878;55.748;48.742;2022-08-01T07:48:09;3.90;;;1.60;;
65279;SDS011;51878;55.748;48.742;2022-08-01T07:50:36;3.05;;;1.70;;
65279;SDS011;51878;55.748;48.742;2022-08-01T07:53:03;1.75;;;1.60;;
65279;SDS011;51878;55.748;48.742;2022-08-01T07:55:30;3.00;;;1.80;;
65279;SDS011;51878;55.748;48.742;2022-08-01T07:57:58;2.45;;;1.63;;
65279;SDS011;51878;55.748;48.742;2022-08-01T08:00:25;3.40;;;1.80;;
65279;SDS011;51878;55.748;48.742;2022-08-01T08:02:54;2.58;;;1.70;;
65279;SDS011;51878;55.748;48.742;2022-08-01T08:05:21;24.52;;;6.68;;
65279;SDS011;51878;55.748;48.742;2022-08-01T08:08:09;7.68;;;3.33;;
65279;SDS011;51878;55.748;48.742;2022-08-01T08:10:36;10.27;;;4.05;;
65279;SDS011;51878;55.748;48.742;2022-08-01T08:13:04;7.30;;;2.80;;
65279;SDS011;51878;55.748;48.742;2022-08-01T08:15:31;9.70;;;3.90;;
65279;SDS011;51878;55.748;48.742;2022-08-01T08:17:58;5.15;;;2.20;;
65279;SDS011;51878;55.748;48.742;2022-08-01T08:20:26;8.93;;;3.40;;
65279;SDS011;51878;55.748;48.742;2022-08-01T08:22:56;5.43;;;1.92;;
65279;SDS011;51878;55.748;48.742;2022-08-01T08:25:26;8.35;;;4.25;;
65279;SDS011;51878;55.748;48.742;2022-08-01T08:27:55;6.95;;;2.00;;
65279;SDS011;51878;55.748;48.742;2022-08-01T08:30:23;2.08;;;1.88;;
65279;SDS011;51878;55.748;48.742;2022-08-01T08:32:50;5.60;;;1.80;;
65279;SDS011;51878;55.748;48.742;2022-08-01T08:35:17;5.72;;;2.85;;
65279;SDS011;51878;55.748;48.742;2022-08-01T08:37:48;3.10;;;1.60;;
65279;SDS011;51878;55.748;48.742;2022-08-01T08:40:15;2.83;;;1.70;;
65279;SDS011;51878;55.748;48.742;2022-08-01T08:42:43;4.35;;;2.03;;
65279;SDS011;51878;55.748;48.742;2022-08-01T08:45:12;4.32;;;1.60;;
65279;SDS011;51878;55.748;48.742;2022-08-01T08:47:40;3.85;;;1.70;;
65279;SDS011;51878;55.748;48.742;2022-08-01T08:50:10;2.58;;;1.80;;
65279;SDS011;51878;55.748;48.742;2022-08-01T08:52:38;2.28;;;1.55;;
65279;SDS011;51878;55.748;48.742;2022-08-01T08:55:09;2.10;;;1.50;;
65279;SDS011;51878;55.748;48.742;2022-08-01T08:57:41;2.33;;;1.50;;
65279;SDS011;51878;55.748;48.742;2022-08-01T09:00:29;4.40;;;2.08;;
65279;SDS011;51878;55.748;48.742;2022-08-01T09:02:56;2.92;;;1.70;;
65279;SDS011;51878;55.748;48.742;2022-08-01T09:05:23;2.17;;;1.65;;
65279;SDS011;51878;55.748;48.742;2022-08-01T09:08:07;1.52;;;1.42;;
65279;SDS011;51878;55.748;48.742;2022-08-01T09:10:34;1.92;;;1.58;;
65279;SDS011;51878;55.748;48.742;2022-08-01T09:13:09;2.53;;;1.52;;
65279;SDS011;51878;55.748;48.742;2022-08-01T09:18:26;2.55;;;1.70;;
65279;SDS011;51878;55.748;48.742;2022-08-01T09:23:33;3.72;;;1.67;;
65279;SDS011;51878;55.748;48.742;2022-08-01T09:26:21;2.97;;;1.70;;
65279;SDS011;51878;55.748;48.742;2022-08-01T09:28:56;4.78;;;1.65;;
65279;SDS011;51878;55.748;48.742;2022-08-01T09:31:26;2.65;;;1.85;;
65279;SDS011;51878;55.748;48.742;2022-08-01T09:34:04;2.35;;;1.45;;
65279;SDS011;51878;55.748;48.742;2022-08-01T09:36:44;4.63;;;1.40;;
65279;SDS011;51878;55.748;48.742;2022-08-01T09:39:23;2.58;;;1.60;;
65279;SDS011;51878;55.748;48.742;2022-08-01T09:41:55;2.10;;;1.48;;
65279;SDS011;51878;55.748;48.742;2022-08-01T09:44:40;3.17;;;1.60;;
65279;SDS011;51878;55.748;48.742;2022-08-01T09:47:10;2.08;;;1.63;;
65279;SDS011;51878;55.748;48.742;2022-08-01T09:49:40;2.15;;;1.48;;
65279;SDS011;51878;55.748;48.742;2022-08-01T09:52:12;4.00;;;1.40;;
65279;SDS011;51878;55.748;48.742;2022-08-01T09:54:52;5.05;;;1.63;;
65279;SDS011;51878;55.748;48.742;2022-08-01T09:57:22;4.00;;;1.67;;
65279;SDS011;51878;55.748;48.742;2022-08-01T09:59:52;4.18;;;1.70;;
65279;SDS011;51878;55.748;48.742;2022-08-01T10:02:37;3.83;;;1.52;;
65279;SDS011;51878;55.748;48.742;2022-08-01T10:05:31;1.50;;;1.30;;
65279;SDS011;51878;55.748;48.742;2022-08-01T10:08:03;3.08;;;1.55;;
65279;SDS011;51878;55.748;48.742;2022-08-01T10:10:33;3.75;;;2.08;;
65279;SDS011;51878;55.748;48.742;2022-08-01T10:13:00;6.13;;;1.70;;
65279;SDS011;51878;55.748;48.742;2022-08-01T10:15:28;1.48;;;1.38;;
65279;SDS011;51878;55.748;48.742;2022-08-01T10:18:03;4.68;;;1.70;;
65279;SDS011;51878;55.748;48.742;2022-08-01T10:20:42;2.08;;;1.65;;
65279;SDS011;51878;55.748;48.742;2022-08-01T10:23:09;2.63;;;1.80;;
65279;SDS011;51878;55.748;48.742;2022-08-01T10:25:40;3.55;;;1.60;;
65279;SDS011;51878;55.748;48.742;2022-08-01T10:28:16;2.00;;;1.50;;
65279;SDS011;51878;55.748;48.742;2022-08-01T10:30:47;5.22;;;1.65;;
65279;SDS011;51878;55.748;48.742;2022-08-01T10:36:18;2.10;;;1.90;;
65279;SDS011;51878;55.748;48.742;2022-08-01T10:38:47;2.25;;;1.60;;
65279;SDS011;51878;55.748;48.742;2022-08-01T10:41:16;4.40;;;1.40;;
65279;SDS011;51878;55.748;48.742;2022-08-01T10:43:45;2.78;;;1.70;;
65279;SDS011;51878;55.748;48.742;2022-08-01T10:46:13;2.30;;;1.70;;
65279;SDS011;51878;55.748;48.742;2022-08-01T10:51:17;6.18;;;1.50;;
65279;SDS011;51878;55.748;48.742;2022-08-01T10:53:47;2.85;;;1.52;;
65279;SDS011;51878;55.748;48.742;2022-08-01T10:56:20;8.30;;;1.87;;
65279;SDS011;51878;55.748;48.742;2022-08-01T10:58:55;3.70;;;1.98;;
65279;SDS011;51878;55.748;48.742;2022-08-01T11:01:32;8.77;;;1.77;;
65279;SDS011;51878;55.748;48.742;2022-08-01T11:06:43;5.15;;;1.70;;
65279;SDS011;51878;55.748;48.742;2022-08-01T11:12:13;2.58;;;1.95;;
65279;SDS011;51878;55.748;48.742;2022-08-01T11:20:15;4.32;;;1.65;;
65279;SDS011;51878;55.748;48.742;2022-08-01T11:28:21;4.57;;;1.60;;
65279;SDS011;51878;55.748;48.742;2022-08-01T11:38:44;2.47;;;1.40;;
65279;SDS011;51878;55.748;48.742;2022-08-01T11:41:16;2.05;;;1.63;;
65279;SDS011;51878;55.748;48.742;2022-08-01T11:44:08;3.13;;;1.50;;
65279;SDS011;51878;55.748;48.742;2022-08-01T11:49:45;5.78;;;1.42;;
65279;SDS011;51878;55.748;48.742;2022-08-01T11:52:22;3.42;;;1.50;;
65279;SDS011;51878;55.748;48.742;2022-08-01T11:57:30;1.75;;;1.60;;
65279;SDS011;51878;55.748;48.742;2022-08-01T12:00:09;2.63;;;2.03;;
65279;SDS011;51878;55.748;48.742;2022-08-01T12:02:40;4.55;;;1.42;;
65279;SDS011;51878;55.748;48.742;2022-08-01T12:05:09;1.50;;;1.40;;
65279;SDS011;51878;55.748;48.742;2022-08-01T12:07:40;2.30;;;1.50;;
65279;SDS011;51878;55.748;48.742;2022-08-01T12:10:11;2.58;;;1.60;;
65279;SDS011;51878;55.748;48.742;2022-08-01T12:12:44;1.67;;;1.40;;
65279;SDS011;51878;55.748;48.742;2022-08-01T12:15:16;3.15;;;1.70;;
65279;SDS011;51878;55.748;48.742;2022-08-01T12:17:45;3.65;;;1.65;;
65279;SDS011;51878;55.748;48.742;2022-08-01T12:20:24;2.85;;;1.73;;
65279;SDS011;51878;55.748;48.742;2022-08-01T12:23:22;4.28;;;1.95;;
65279;SDS011;51878;55.748;48.742;2022-08-01T12:25:52;3.88;;;1.52;;
65279;SDS011;51878;55.748;48.742;2022-08-01T12:28:20;1.73;;;1.38;;
65279;SDS011;51878;55.748;48.742;2022-08-01T12:30:48;7.20;;;1.70;;
65279;SDS011;51878;55.748;48.742;2022-08-01T12:33:19;2.63;;;1.50;;
65279;SDS011;51878;55.748;48.742;2022-08-01T12:35:47;2.15;;;1.35;;
65279;SDS011;51878;55.748;48.742;2022-08-01T12:38:19;1.85;;;1.52;;
65279;SDS011;51878;55.748;48.742;2022-08-01T12:40:49;1.67;;;1.50;;
65279;SDS011;51878;55.748;48.742;2022-08-01T12:43:17;1.42;;;1.33;;
65279;SDS011;51878;55.748;48.742;2022-08-01T12:45:47;7.15;;;1.55;;
65279;SDS011;51878;55.748;48.742;2022-08-01T12:48:19;4.10;;;1.40;;
65279;SDS011;51878;55.748;48.742;2022-08-01T12:50:47;6.55;;;1.60;;
65279;SDS011;51878;55.748;48.742;2022-08-01T12:53:16;1.85;;;1.60;;
65279;SDS011;51878;55.748;48.742;2022-08-01T12:55:48;3.75;;;1.90;;
65279;SDS011;51878;55.748;48.742;2022-08-01T12:58:24;4.65;;;1.52;;
65279;SDS011;51878;55.748;48.742;2022-08-01T13:01:06;1.75;;;1.60;;
65279;SDS011;51878;55.748;48.742;2022-08-01T13:03:35;4.18;;;1.63;;
65279;SDS011;51878;55.748;48.742;2022-08-01T13:06:09;2.40;;;1.50;;
65279;SDS011;51878;55.748;48.742;2022-08-01T13:08:42;3.70;;;1.50;;
65279;SDS011;51878;55.748;48.742;2022-08-01T13:11:10;7.82;;;1.80;;
65279;SDS011;51878;55.748;48.742;2022-08-01T13:13:46;2.15;;;1.55;;
65279;SDS011;51878;55.748;48.742;2022-08-01T13:16:17;2.33;;;1.58;;
65279;SDS011;51878;55.748;48.742;2022-08-01T13:18:59;3.13;;;1.48;;
65279;SDS011;51878;55.748;48.742;2022-08-01T13:21:28;5.05;;;1.60;;
65279;SDS011;51878;55.748;48.742;2022-08-01T13:24:07;1.90;;;1.52;;
65279;SDS011;51878;55.748;48.742;2022-08-01T13:26:55;1.90;;;1.70;;
65279;SDS011;51878;55.748;48.742;2022-08-01T13:29:43;5.65;;;1.85;;
65279;SDS011;51878;55.748;48.742;2022-08-01T13:32:18;5.78;;;1.75;;
65279;SDS011;51878;55.748;48.742;2022-08-01T13:34:48;1.83;;;1.60;;
65279;SDS011;51878;55.748;48.742;2022-08-01T13:37:15;1.67;;;1.50;;
65279;SDS011;51878;55.748;48.742;2022-08-01T13:39:45;5.90;;;2.25;;
65279;SDS011;51878;55.748;48.742;2022-08-01T13:42:14;2.65;;;1.58;;
65279;SDS011;51878;55.748;48.742;2022-08-01T13:44:44;4.20;;;1.70;;
65279;SDS011;51878;55.748;48.742;2022-08-01T13:47:14;3.85;;;1.75;;
65279;SDS011;51878;55.748;48.742;2022-08-01T13:49:44;2.75;;;1.58;;
65279;SDS011;51878;55.748;48.742;2022-08-01T13:52:11;4.15;;;1.80;;
65279;SDS011;51878;55.748;48.742;2022-08-01T13:54:38;2.05;;;1.70;;
65279;SDS011;51878;55.748;48.742;2022-08-01T13:57:05;3.20;;;1.80;;
65279;SDS011;51878;55.748;48.742;2022-08-01T13:59:32;1.90;;;1.70;;
65279;SDS011;51878;55.748;48.742;2022-08-01T14:01:59;3.05;;;1.70;;
65279;SDS011;51878;55.748;48.742;2022-08-01T14:04:27;3.17;;;1.83;;
65279;SDS011;51878;55.748;48.742;2022-08-01T14:06:54;3.55;;;2.00;;
65279;SDS011;51878;55.748;48.742;2022-08-01T14:09:21;3.53;;;1.70;;
65279;SDS011;51878;55.748;48.742;2022-08-01T14:11:50;1.98;;;1.80;;
65279;SDS011;51878;55.748;48.742;2022-08-01T14:14:18;1.52;;;1.40;;
65279;SDS011;51878;55.748;48.742;2022-08-01T14:16:45;4.53;;;1.60;;
65279;SDS011;51878;55.748;48.742;2022-08-01T14:19:12;2.00;;;1.40;;
65279;SDS011;51878;55.748;48.742;2022-08-01T14:21:39;10.05;;;1.80;;
65279;SDS011;51878;55.748;48.742;2022-08-01T14:24:07;5.13;;;1.65;;
65279;SDS011;51878;55.748;48.742;2022-08-01T14:26:53;2.75;;;1.95;;
65279;SDS011;51878;55.748;48.742;2022-08-01T14:29:20;2.63;;;1.63;;
65279;SDS011;51878;55.748;48.742;2022-08-01T14:31:47;5.38;;;1.67;;
65279;SDS011;51878;55.748;48.742;2022-08-01T14:34:14;8.00;;;2.03;;
65279;SDS011;51878;55.748;48.742;2022-08-01T14:36:42;4.80;;;1.90;;
65279;SDS011;51878;55.748;48.742;2022-08-01T14:39:09;3.20;;;1.90;;
65279;SDS011;51878;55.748;48.742;2022-08-01T14:41:40;2.58;;;1.77;;
65279;SDS011;51878;55.748;48.742;2022-08-01T14:44:07;2.58;;;1.70;;
65279;SDS011;51878;55.748;48.742;2022-08-01T14:46:35;2.72;;;1.70;;
65279;SDS011;51878;55.748;48.742;2022-08-01T14:49:02;4.90;;;1.73;;
65279;SDS011;51878;55.748;48.742;2022-08-01T14:51:29;2.80;;;2.05;;
65279;SDS011;51878;55.748;48.742;2022-08-01T14:53:59;1.85;;;1.67;;
65279;SDS011;51878;55.748;48.742;2022-08-01T14:56:26;4.28;;;2.17;;
65279;SDS011;51878;55.748;48.742;2022-08-01T14:58:54;2.70;;;2.00;;
65279;SDS011;51878;55.748;48.742;2022-08-01T15:01:21;9.25;;;2.20;;
65279;SDS011;51878;55.748;48.742;2022-08-01T15:03:48;6.05;;;2.10;;
65279;SDS011;51878;55.748;48.742;2022-08-01T15:06:17;7.43;;;2.30;;
65279;SDS011;51878;55.748;48.742;2022-08-01T15:08:44;10.25;;;2.22;;
65279;SDS011;51878;55.748;48.742;2022-08-01T15:11:11;5.10;;;2.30;;
65279;SDS011;51878;55.748;48.742;2022-08-01T15:13:38;15.00;;;3.05;;
65279;SDS011;51878;55.748;48.742;2022-08-01T15:16:08;10.27;;;2.40;;
65279;SDS011;51878;55.748;48.742;2022-08-01T15:18:35;6.60;;;2.60;;
65279;SDS011;51878;55.748;48.742;2022-08-01T15:21:02;3.55;;;1.98;;
65279;SDS011;51878;55.748;48.742;2022-08-01T15:23:29;6.13;;;2.55;;
65279;SDS011;51878;55.748;48.742;2022-08-01T15:25:56;5.75;;;2.03;;
65279;SDS011;51878;55.748;48.742;2022-08-01T15:28:23;6.60;;;2.03;;
65279;SDS011;51878;55.748;48.742;2022-08-01T15:30:51;2.97;;;1.83;;
65279;SDS011;51878;55.748;48.742;2022-08-01T15:33:18;3.65;;;1.60;;
65279;SDS011;51878;55.748;48.742;2022-08-01T15:35:47;2.83;;;1.92;;
65279;SDS011;51878;55.748;48.742;2022-08-01T15:38:14;5.70;;;2.15;;
65279;SDS011;51878;55.748;48.742;2022-08-01T15:40:41;3.17;;;1.77;;
65279;SDS011;51878;55.748;48.742;2022-08-01T15:43:08;2.40;;;1.77;;